.
WxDataArchive / Data Records for 2013-08-19
2013-08-18 August 2013 2013-08-20

Data Records for Monday, 19 August 2013

Time	Temp	Chill	HIndex	Humid	Dewpt	 Wind 	HiWind	WindDir	Rain 	Barom 
-----	----	-----	------	-----	-----	------	------	-------	-----	----- 
00:00	63.9	63.9	63.9	84	59.0	0	0	---	0.00	30.109 
00:05	63.7	63.7	63.7	84	58.8	0	0	---	0.00	30.109 
00:10	63.5	63.5	63.5	84	58.6	0	0	---	0.00	30.109 
00:15	63.4	63.4	63.4	85	58.8	0	0	---	0.00	30.101 
00:20	63.2	63.2	63.2	85	58.6	0	0	---	0.00	30.101 
00:25	63.1	63.1	63.1	86	58.8	0	0	---	0.00	30.101 
00:30	62.9	62.9	62.9	86	58.6	0	0	---	0.00	30.105 
00:35	62.7	62.7	62.7	87	58.8	0	0	---	0.00	30.105 
00:40	62.6	62.6	62.6	87	58.7	0	0	---	0.00	30.105 
00:45	62.6	62.6	62.6	87	58.7	0	0	---	0.00	30.105 
00:50	62.4	62.4	62.4	88	58.8	0	0	---	0.00	30.105 
00:55	62.3	62.3	62.3	88	58.7	0	0	---	0.00	30.105 
01:00	62.1	62.1	62.1	88	58.5	0	0	---	0.00	30.107 
01:05	62.1	62.1	62.1	88	58.5	0	0	---	0.00	30.107 
01:10	62.0	62.0	62.0	88	58.4	0	0	---	0.00	30.107 
01:15	62.0	62.0	62.0	88	58.4	0	0	---	0.00	30.107 
01:20	61.8	61.8	61.8	88	58.2	0	0	---	0.00	30.107 
01:25	61.8	61.8	61.8	89	58.5	0	0	---	0.00	30.107 
01:30	61.6	61.6	61.6	89	58.3	0	0	---	0.00	30.101 
01:35	61.6	61.6	61.6	89	58.3	0	0	---	0.00	30.101 
01:40	61.5	61.5	61.5	89	58.2	0	0	---	0.00	30.101 
01:45	61.5	61.5	61.5	89	58.2	0	0	---	0.00	30.100 
01:50	61.3	61.3	61.3	90	58.3	0	0	---	0.00	30.100 
01:55	61.3	61.3	61.3	90	58.3	0	0	---	0.00	30.100 
02:00	61.2	61.2	61.2	90	58.2	0	0	---	0.00	30.101 
02:05	61.0	61.0	61.0	90	58.0	0	0	---	0.00	30.101 
02:10	61.0	61.0	61.0	90	58.0	0	0	---	0.00	30.101 
02:15	60.9	60.9	60.9	90	57.9	0	0	---	0.00	30.097 
02:20	60.7	60.7	60.7	91	58.1	0	0	---	0.00	30.097 
02:25	60.7	60.7	60.7	91	58.1	0	0	---	0.00	30.097 
02:30	60.5	60.5	60.5	91	57.9	0	0	---	0.00	30.096 
02:35	60.5	60.5	60.5	91	57.9	0	0	---	0.00	30.096 
02:40	60.5	60.5	60.5	91	57.9	0	0	---	0.00	30.096 
02:45	60.5	60.5	60.5	91	57.9	0	0	---	0.00	30.097 
02:50	60.4	60.4	60.4	91	57.8	0	0	---	0.00	30.097 
02:55	60.4	60.4	60.4	91	57.8	0	0	---	0.00	30.097 
03:00	60.2	60.2	60.2	91	57.6	0	0	---	0.00	30.095 
03:05	60.1	60.1	60.1	91	57.5	0	0	---	0.00	30.095 
03:10	59.9	59.9	59.9	91	57.3	0	0	---	0.00	30.095 
03:15	59.9	59.9	59.9	91	57.3	0	0	---	0.00	30.095 
03:20	59.8	59.8	59.8	91	57.2	0	0	---	0.00	30.095 
03:25	59.6	59.6	59.6	91	57.0	0	0	---	0.00	30.095 
03:30	59.6	59.6	59.6	91	57.0	0	0	---	0.00	30.094 
03:35	59.5	59.5	59.5	91	56.9	0	0	---	0.00	30.094 
03:40	59.5	59.5	59.5	92	57.2	0	0	---	0.00	30.094 
03:45	59.3	59.3	59.3	92	57.0	0	0	---	0.00	30.092 
03:50	59.3	59.3	59.3	92	57.0	0	0	---	0.00	30.092 
03:55	59.3	59.3	59.3	92	57.0	0	0	---	0.00	30.092 
04:00	59.2	59.2	59.2	92	56.9	0	0	---	0.00	30.095 
04:05	59.0	59.0	59.0	92	56.7	0	0	---	0.00	30.095 
04:10	58.9	58.9	58.9	92	56.6	0	0	---	0.00	30.095 
04:15	58.7	58.7	58.7	92	56.4	0	0	---	0.00	30.092 
04:20	58.7	58.7	58.7	92	56.4	0	0	---	0.00	30.092 
04:25	58.7	58.7	58.7	92	56.4	0	0	---	0.00	30.092 
04:30	58.6	58.6	58.6	92	56.3	0	0	---	0.00	30.094 
04:35	58.6	58.6	58.6	92	56.3	0	0	---	0.00	30.094 
04:40	58.6	58.6	58.6	92	56.3	0	0	---	0.00	30.094 
04:45	58.4	58.4	58.4	92	56.1	0	0	---	0.00	30.097 
04:50	58.4	58.4	58.4	92	56.1	0	0	---	0.00	30.097 
04:55	58.3	58.3	58.3	92	56.0	0	0	---	0.00	30.097 
05:00	58.3	58.3	58.3	93	56.3	0	0	---	0.00	30.096 
05:05	58.3	58.3	58.3	93	56.3	0	0	---	0.00	30.096 
05:10	58.1	58.1	58.1	93	56.1	0	0	---	0.00	30.096 
05:15	58.1	58.1	58.1	93	56.1	0	0	---	0.00	30.098 
05:20	58.0	58.0	58.0	93	56.0	0	0	---	0.00	30.098 
05:25	57.8	57.8	57.8	93	55.8	0	0	---	0.00	30.098 
05:30	57.8	57.8	57.8	93	55.8	0	0	---	0.00	30.103 
05:35	57.8	57.8	57.8	93	55.8	0	0	---	0.00	30.103 
05:40	57.8	57.8	57.8	93	55.8	0	0	---	0.00	30.103 
05:45	57.8	57.8	57.8	93	55.8	0	0	---	0.00	30.102 
05:50	58.0	58.0	58.0	93	56.0	0	0	---	0.00	30.102 
05:55	58.0	58.0	58.0	93	56.0	0	0	---	0.00	30.102 
06:00	58.0	58.0	58.0	93	56.0	0	0	---	0.00	30.100 
06:05	58.0	58.0	58.0	93	56.0	0	0	---	0.00	30.100 
06:10	58.0	58.0	58.0	93	56.0	0	0	---	0.00	30.100 
06:15	58.0	58.0	58.0	94	56.3	0	0	---	0.00	30.106 
06:20	58.0	58.0	58.0	94	56.3	0	0	---	0.00	30.106 
06:25	57.8	57.8	57.8	94	56.1	0	0	---	0.00	30.106 
06:30	57.8	57.8	57.8	94	56.1	0	0	---	0.00	30.111 
06:35	57.8	57.8	57.8	94	56.1	0	0	---	0.00	30.111 
06:40	57.8	57.8	57.8	94	56.1	0	0	---	0.00	30.111 
06:45	57.8	57.8	57.8	94	56.1	0	0	---	0.00	30.114 
06:50	57.8	57.8	57.8	94	56.1	0	0	---	0.00	30.114 
06:55	57.8	57.8	57.8	94	56.1	0	0	---	0.00	30.114 
07:00	57.6	57.6	57.6	94	55.9	0	0	---	0.00	30.114 
07:05	57.6	57.6	57.6	94	55.9	0	0	---	0.00	30.114 
07:10	57.6	57.6	57.6	94	55.9	0	0	---	0.00	30.114 
07:15	57.6	57.6	57.6	94	55.9	0	0	---	0.00	30.115 
07:20	57.6	57.6	57.6	94	55.9	0	0	---	0.00	30.115 
07:25	57.6	57.6	57.6	94	55.9	0	0	---	0.00	30.115 
07:30	57.6	57.6	57.6	94	55.9	0	0	---	0.00	30.115 
07:35	57.8	57.8	57.8	94	56.1	0	0	---	0.00	30.115 
07:40	57.8	57.8	57.8	94	56.1	0	0	---	0.00	30.115 
07:45	58.1	58.1	58.1	95	56.7	0	0	---	0.00	30.117 
07:50	58.6	58.6	58.6	95	57.2	0	0	---	0.00	30.117 
07:55	58.9	58.9	58.9	95	57.5	0	0	---	0.00	30.117 
08:00	59.2	59.2	59.2	95	57.8	0	0	---	0.00	30.118 
08:05	59.5	59.5	59.5	95	58.1	0	0	---	0.00	30.118 
08:10	60.1	60.1	60.1	95	58.7	0	0	---	0.00	30.118 
08:15	60.4	60.4	60.4	95	59.0	0	0	---	0.00	30.121 
08:20	61.2	61.2	61.2	94	59.5	0	0	---	0.00	30.121 
08:25	61.8	61.8	61.8	94	60.1	0	0	---	0.00	30.121 
08:30	62.4	62.4	62.4	94	60.6	0	0	---	0.00	30.118 
08:35	63.2	63.2	63.2	93	61.1	0	0	---	0.00	30.118 
08:40	64.2	64.2	64.2	92	61.8	0	0	---	0.00	30.118 
08:45	65.2	65.2	65.2	90	62.2	0	0	---	0.00	30.113 
08:50	65.8	65.8	65.8	88	62.1	0	0	---	0.00	30.113 
08:55	66.3	66.3	66.3	85	61.6	0	0	---	0.00	30.113 
09:00	66.9	66.9	66.9	82	61.2	0	0	---	0.00	30.113 
09:05	67.4	67.4	67.4	80	61.0	0	0	---	0.00	30.113 
09:10	68.3	68.3	68.3	78	61.2	0	0	---	0.00	30.113 
09:15	69.1	69.1	69.1	74	60.5	0	0	---	0.00	30.115 
09:20	69.9	69.9	69.9	72	60.4	0	0	---	0.00	30.115 
09:25	70.3	70.3	70.3	70	60.0	0	0	---	0.00	30.115 
09:30	70.8	70.8	70.8	70	60.5	0	0	---	0.00	30.115 
09:35	71.3	71.3	71.3	69	60.6	0	0	---	0.00	30.115 
09:40	71.8	71.8	71.8	67	60.2	0	0	---	0.00	30.115 
09:45	72.3	72.3	72.3	67	60.7	0	0	---	0.00	30.114 
09:50	72.8	72.8	72.8	67	61.2	0	0	---	0.00	30.114 
09:55	73.3	73.3	73.3	65	60.8	0	0	---	0.00	30.114 
10:00	73.7	73.7	73.7	63	60.3	0	0	---	0.00	30.115 
10:05	74.0	74.0	74.0	62	60.1	0	0	---	0.00	30.115 
10:10	74.4	74.4	74.4	60	59.6	0	0	---	0.00	30.115 
10:15	74.7	74.7	74.7	61	60.3	0	0	---	0.00	30.115 
10:20	75.1	75.1	77.6	56	58.3	0	0	---	0.00	30.115 
10:25	75.4	75.4	77.7	57	59.1	0	0	---	0.00	30.115 
10:30	75.8	75.8	78.0	54	57.9	0	0	---	0.00	30.115 
10:35	76.3	76.3	78.3	54	58.4	0	0	---	0.00	30.115 
10:40	76.7	76.7	78.5	55	59.3	0	0	---	0.00	30.115 
10:45	77.0	77.0	78.7	52	58.0	0	0	---	0.00	30.113 
10:50	77.4	77.4	78.9	52	58.4	0	0	---	0.00	30.113 
10:55	77.6	77.6	79.0	52	58.6	0	0	---	0.00	30.113 
11:00	78.1	78.1	79.4	52	59.0	0	0	---	0.00	30.109 
11:05	78.8	78.8	79.6	47	56.8	0	0	---	0.00	30.109 
11:10	79.2	79.2	80.1	49	58.4	0	0	---	0.00	30.109 
11:15	79.4	79.4	80.2	49	58.5	0	0	---	0.00	30.109 
11:20	79.6	79.6	80.3	48	58.2	0	1	90	0.00	30.109 
11:25	80.1	80.1	80.5	46	57.4	1	3	90	0.00	30.109 
11:30	80.3	80.3	80.8	47	58.2	0	2	90	0.00	30.105 
11:35	80.7	80.7	80.9	45	57.4	0	2	90	0.00	30.105 
11:40	81.1	81.1	81.3	45	57.7	0	1	90	0.00	30.105 
11:45	81.4	81.4	81.4	44	57.4	0	1	90	0.00	30.101 
11:50	81.4	81.4	81.5	45	58.0	1	3	90	0.00	30.101 
11:55	80.7	80.7	81.0	46	58.0	1	4	90	0.00	30.101 
12:00	80.7	80.7	81.0	46	58.0	0	1	90	0.00	30.099 
12:05	81.2	81.2	81.5	46	58.4	0	2	90	0.00	30.099 
12:10	82.0	82.0	81.8	43	57.3	1	2	90	0.00	30.099 
12:15	82.2	82.2	82.1	44	58.1	0	1	90	0.00	30.097 
12:20	81.6	81.6	81.5	43	56.9	0	1	90	0.00	30.097 
12:25	81.4	81.4	81.3	43	56.7	1	5	90	0.00	30.097 
12:30	81.6	81.6	81.5	43	56.9	1	2	22	0.00	30.095 
12:35	81.4	81.4	81.3	43	56.7	0	2	68	0.00	30.095 
12:40	80.9	80.9	81.2	46	58.2	0	2	68	0.00	30.095 
12:45	80.7	80.7	80.9	45	57.4	0	3	68	0.00	30.095 
12:50	80.9	80.9	81.4	48	59.3	0	1	270	0.00	30.095 
12:55	81.1	81.1	81.4	46	58.3	1	3	135	0.00	30.095 
13:00	81.2	81.2	81.5	46	58.4	1	3	248	0.00	30.095 
13:05	81.6	81.6	81.7	45	58.2	0	2	248	0.00	30.095 
13:10	82.0	82.0	81.9	44	57.9	1	3	248	0.00	30.095 
13:15	81.4	81.4	81.2	42	56.1	1	5	248	0.00	30.094 
13:20	80.9	80.9	80.9	43	56.3	0	2	338	0.00	30.094 
13:25	80.5	80.5	80.8	46	57.8	0	2	338	0.00	30.094 
13:30	80.1	80.1	80.7	48	58.6	0	1	338	0.00	30.095 
13:35	79.4	79.4	80.2	49	58.5	1	3	338	0.00	30.095 
13:40	80.1	80.1	80.6	47	58.0	1	4	338	0.00	30.095 
13:45	80.9	80.9	81.1	45	57.5	1	4	270	0.00	30.089 
13:50	81.6	81.6	81.3	42	56.3	2	4	270	0.00	30.089 
13:55	82.0	82.0	81.3	39	54.6	1	4	270	0.00	30.089 
14:00	82.6	82.6	82.1	41	56.5	1	3	270	0.00	30.086 
14:05	82.6	82.6	82.4	43	57.8	1	4	270	0.00	30.086 
14:10	83.2	83.2	83.0	43	58.3	1	3	270	0.00	30.086 
14:15	83.8	83.8	83.2	41	57.6	1	2	270	0.00	30.079 
14:20	83.6	83.6	82.8	39	56.0	0	2	270	0.00	30.079 
14:25	83.8	83.8	83.6	43	58.9	0	2	270	0.00	30.079 
14:30	84.0	84.0	83.3	40	57.0	0	2	270	0.00	30.079 
14:35	84.3	84.3	83.6	40	57.3	0	2	270	0.00	30.079 
14:40	84.3	84.3	83.4	39	56.6	1	5	270	0.00	30.079 
14:45	84.0	84.0	82.7	36	54.1	2	4	270	0.00	30.080 
14:50	83.2	83.2	82.3	38	54.9	1	5	338	0.00	30.080 
14:55	83.4	83.4	82.4	38	55.1	2	5	270	0.00	30.080 
15:00	82.8	82.8	82.0	39	55.3	2	4	270	0.00	30.078 
15:05	83.0	83.0	82.2	39	55.5	0	2	270	0.00	30.078 
15:10	83.4	83.4	82.6	39	55.8	0	2	270	0.00	30.078 
15:15	84.1	84.1	83.6	41	57.8	0	3	270	0.00	30.073 
15:20	85.1	85.1	84.6	41	58.7	0	2	270	0.00	30.073 
15:25	85.3	85.3	84.1	37	56.0	1	2	270	0.00	30.073 
15:30	84.7	84.7	83.5	37	55.5	1	4	292	0.00	30.068 
15:35	84.5	84.5	83.6	39	56.8	1	2	292	0.00	30.068 
15:40	84.7	84.7	83.5	37	55.5	2	3	292	0.00	30.068 
15:45	84.7	84.7	83.8	39	57.0	1	3	292	0.00	30.066 
15:50	84.5	84.5	83.3	37	55.3	1	3	292	0.00	30.066 
15:55	84.3	84.3	83.4	39	56.6	1	3	45	0.00	30.066 
16:00	83.8	83.8	83.1	40	56.9	1	3	315	0.00	30.065 
16:05	83.8	83.8	83.2	41	57.6	0	1	315	0.00	30.065 
16:10	84.1	84.1	83.4	40	57.1	1	4	315	0.00	30.065 
16:15	84.0	84.0	83.4	41	57.7	1	4	292	0.00	30.063 
16:20	84.0	84.0	83.3	40	57.0	2	4	315	0.00	30.063 
16:25	84.1	84.1	83.9	43	59.2	0	1	292	0.00	30.063 
16:30	84.5	84.5	84.0	41	58.2	1	3	292	0.00	30.062 
16:35	84.5	84.5	83.6	39	56.8	1	3	270	0.00	30.062 
16:40	84.5	84.5	83.6	39	56.8	1	3	270	0.00	30.062 
16:45	84.3	84.3	83.4	39	56.6	1	3	270	0.00	30.057 
16:50	84.0	84.0	83.6	42	58.4	2	3	292	0.00	30.057 
16:55	84.0	84.0	83.8	43	59.1	1	3	292	0.00	30.057 
17:00	84.1	84.1	83.7	42	58.5	1	3	292	0.00	30.054 
17:05	84.0	84.0	83.6	42	58.4	1	6	292	0.00	30.054 
17:10	83.8	83.8	83.4	42	58.2	1	6	338	0.00	30.054 
17:15	83.6	83.6	83.5	44	59.3	1	4	270	0.00	30.051 
17:20	83.6	83.6	83.5	44	59.3	1	4	292	0.00	30.051 
17:25	83.6	83.6	83.2	42	58.0	1	3	315	0.00	30.051 
17:30	83.8	83.8	83.7	44	59.5	1	2	315	0.00	30.049 
17:35	83.6	83.6	83.2	42	58.0	1	3	315	0.00	30.049 
17:40	82.8	82.8	82.6	43	58.0	1	2	315	0.00	30.049 
17:45	82.2	82.2	82.3	45	58.7	0	2	315	0.00	30.049 
17:50	82.2	82.2	82.4	46	59.3	0	1	315	0.00	30.049 
17:55	82.4	82.4	82.6	46	59.5	1	2	315	0.00	30.049 
18:00	82.4	82.4	82.5	45	58.9	1	3	315	0.00	30.049 
18:05	82.6	82.6	82.7	45	59.1	1	3	315	0.00	30.049 
18:10	82.6	82.6	82.8	46	59.7	1	3	315	0.00	30.049 
18:15	82.6	82.6	82.8	46	59.7	1	5	315	0.00	30.048 
18:20	82.4	82.4	82.6	46	59.5	1	3	315	0.00	30.048 
18:25	82.2	82.2	82.4	46	59.3	1	3	315	0.00	30.048 
18:30	82.2	82.2	82.4	46	59.3	1	4	270	0.00	30.048 
18:35	82.0	82.0	82.2	46	59.1	1	3	270	0.00	30.048 
18:40	81.8	81.8	82.0	46	59.0	1	3	270	0.00	30.048 
18:45	81.8	81.8	82.1	47	59.6	0	2	270	0.00	30.046 
18:50	81.6	81.6	81.9	47	59.4	1	3	270	0.00	30.046 
18:55	81.4	81.4	81.9	48	59.8	1	2	270	0.00	30.046 
19:00	81.4	81.4	81.9	48	59.8	1	3	270	0.00	30.041 
19:05	81.4	81.4	81.9	48	59.8	1	4	315	0.00	30.041 
19:10	81.1	81.1	81.7	49	60.1	1	3	315	0.00	30.041 
19:15	80.9	80.9	81.5	49	59.9	1	3	315	0.00	30.037 
19:20	80.9	80.9	81.5	49	59.9	1	2	315	0.00	30.037 
19:25	80.7	80.7	81.4	50	60.3	0	2	315	0.00	30.037 
19:30	80.7	80.7	81.4	50	60.3	0	2	315	0.00	30.036 
19:35	80.5	80.5	81.2	49	59.6	0	1	315	0.00	30.036 
19:40	80.1	80.1	80.8	49	59.2	0	2	315	0.00	30.036 
19:45	79.9	79.9	80.7	50	59.6	0	2	315	0.00	30.037 
19:50	79.8	79.8	80.7	51	60.0	0	1	315	0.00	30.037 
19:55	79.6	79.6	80.5	51	59.9	0	1	315	0.00	30.037 
20:00	79.4	79.4	80.5	52	60.2	0	1	315	0.00	30.037 
20:05	79.2	79.2	80.3	52	60.0	0	0	---	0.00	30.037 
20:10	78.8	78.8	80.0	53	60.2	0	0	---	0.00	30.037 
20:15	78.5	78.5	79.8	54	60.4	0	0	---	0.00	30.034 
20:20	78.3	78.3	79.7	54	60.3	0	0	---	0.00	30.034 
20:25	77.9	77.9	79.4	55	60.4	0	0	---	0.00	30.034 
20:30	77.6	77.6	79.2	56	60.6	0	0	---	0.00	30.038 
20:35	77.2	77.2	78.9	56	60.3	0	0	---	0.00	30.038 
20:40	76.7	76.7	78.5	57	60.3	0	0	---	0.00	30.038 
20:45	76.3	76.3	78.2	58	60.4	0	0	---	0.00	30.044 
20:50	76.0	76.0	78.0	59	60.6	0	0	---	0.00	30.044 
20:55	75.4	75.4	77.6	60	60.5	0	0	---	0.00	30.044 
21:00	75.1	75.1	77.4	61	60.7	0	0	---	0.00	30.044 
21:05	74.6	74.6	74.6	62	60.7	0	0	---	0.00	30.044 
21:10	74.0	74.0	74.0	63	60.6	0	0	---	0.00	30.044 
21:15	73.7	73.7	73.7	64	60.7	0	0	---	0.00	30.041 
21:20	73.2	73.2	73.2	65	60.7	0	0	---	0.00	30.041 
21:25	72.8	72.8	72.8	66	60.8	0	0	---	0.00	30.041 
21:30	72.5	72.5	72.5	67	60.9	0	0	---	0.00	30.044 
21:35	72.0	72.0	72.0	68	60.8	0	0	---	0.00	30.044 
21:40	71.8	71.8	71.8	69	61.1	0	0	---	0.00	30.044 
21:45	71.5	71.5	71.5	70	61.2	0	0	---	0.00	30.048 
21:50	71.1	71.1	71.1	71	61.2	0	0	---	0.00	30.048 
21:55	70.8	70.8	70.8	72	61.3	0	0	---	0.00	30.048 
22:00	70.6	70.6	70.6	73	61.5	0	0	---	0.00	30.055 
22:05	70.3	70.3	70.3	74	61.6	0	0	---	0.00	30.055 
22:10	70.1	70.1	70.1	74	61.4	0	0	---	0.00	30.055 
22:15	69.8	69.8	69.8	75	61.5	0	0	---	0.00	30.057 
22:20	69.6	69.6	69.6	76	61.7	0	0	---	0.00	30.057 
22:25	69.3	69.3	69.3	77	61.8	0	0	---	0.00	30.057 
22:30	69.1	69.1	69.1	77	61.6	0	0	---	0.00	30.058 
22:35	68.9	68.9	68.9	78	61.7	0	0	---	0.00	30.058 
22:40	68.6	68.6	68.6	78	61.5	0	0	---	0.00	30.058 
22:45	68.4	68.4	68.4	79	61.6	0	0	---	0.00	30.060 
22:50	68.3	68.3	68.3	79	61.5	0	0	---	0.00	30.060 
22:55	68.1	68.1	68.1	80	61.7	0	0	---	0.00	30.060 
23:00	67.8	67.8	67.8	80	61.4	0	0	---	0.00	30.060 
23:05	67.6	67.6	67.6	81	61.6	0	0	---	0.00	30.060 
23:10	67.4	67.4	67.4	81	61.4	0	0	---	0.00	30.060 
23:15	67.3	67.3	67.3	81	61.3	0	0	---	0.00	30.061 
23:20	67.3	67.3	67.3	82	61.6	0	0	---	0.00	30.061 
23:25	67.1	67.1	67.1	82	61.4	0	0	---	0.00	30.061 
23:30	66.9	66.9	66.9	83	61.6	0	0	---	0.00	30.061 
23:35	66.8	66.8	66.8	83	61.5	0	0	---	0.00	30.061 
23:40	66.6	66.6	66.6	84	61.6	0	0	---	0.00	30.061 
23:45	66.4	66.4	66.4	84	61.4	0	0	---	0.00	30.069 
23:50	66.3	66.3	66.3	84	61.3	0	0	---	0.00	30.069 
23:55	66.1	66.1	66.1	84	61.1	0	0	---	0.00	30.069 

CoCoRaHS
IN-AL-39
A2 Web Hosting
Creative Commons License
GoDaddy
search engine by freefind advanced

loaded 2018-11-18 11:15:59 • last modified 2010-11-18 10:43:29
Privacy PolicyDisclaimer
• wx.awcolley.com is powered by PmWiki v.2002016 •
• all content (unless otherwise noted) © 2018 A W Colley